createdAt,value
2022-12-20T00:01:54.348Z,98715.19
2022-12-20T00:04:24.475Z,98722.88
2022-12-20T00:06:52.637Z,98707.59
2022-12-20T00:09:21.119Z,98708.59
2022-12-20T00:11:49.338Z,98704.78
2022-12-20T00:14:19.133Z,98701.25
2022-12-20T00:16:47.678Z,98703.78
2022-12-20T00:19:17.017Z,98701.22
2022-12-20T00:21:48.607Z,98708.69
2022-12-20T00:24:22.212Z,98690.28
2022-12-20T00:26:54.142Z,98670.84
2022-12-20T00:29:22.839Z,98708.94
2022-12-20T00:31:51.266Z,98723.09
2022-12-20T00:34:20.326Z,98707.75
2022-12-20T00:36:50.855Z,98695.63
2022-12-20T00:39:19.368Z,98697.25
2022-12-20T00:41:47.709Z,98699.84
2022-12-20T00:44:15.968Z,98705.59
2022-12-20T00:46:44.470Z,98700.91
2022-12-20T00:49:13.136Z,98706.06
2022-12-20T00:51:41.869Z,98704.19
2022-12-20T00:54:12.001Z,98708.50
2022-12-20T00:56:40.740Z,98718.78
2022-12-20T00:59:08.975Z,98698.91
2022-12-20T01:01:38.050Z,98718.78
2022-12-20T01:04:06.635Z,98714.41
2022-12-20T01:06:35.146Z,98699.25
2022-12-20T01:09:04.507Z,98685.72
2022-12-20T01:11:36.196Z,98677.47
2022-12-20T01:14:07.401Z,98676.84
2022-12-20T01:16:38.549Z,98696.19
2022-12-20T01:19:07.579Z,98708.06
2022-12-20T01:21:36.061Z,98698.50
2022-12-20T01:24:04.482Z,98689.59
2022-12-20T01:26:34.054Z,98684.53
2022-12-20T01:29:03.059Z,98680.38
2022-12-20T01:31:31.588Z,98665.28
2022-12-20T01:34:02.678Z,98661.06
2022-12-20T01:36:33.948Z,98649.78
2022-12-20T01:39:04.956Z,98677.38
2022-12-20T01:41:35.540Z,98672.91
2022-12-20T01:44:06.367Z,98677.09
2022-12-20T01:46:36.539Z,98684.72
2022-12-20T01:49:11.018Z,98675.38
2022-12-20T01:51:44.799Z,98672.03
2022-12-20T01:54:18.454Z,98680.38
2022-12-20T01:56:50.980Z,98696.38
2022-12-20T01:59:20.787Z,98693.75
2022-12-20T02:01:50.522Z,98703.03
2022-12-20T02:04:19.245Z,98701.28
2022-12-20T02:06:49.951Z,98702.03
2022-12-20T02:09:18.733Z,98688.38
2022-12-20T02:12:10.584Z,98669.56
2022-12-20T02:14:51.671Z,98665.75
2022-12-20T02:17:33.325Z,98670.94
2022-12-20T02:20:40.721Z,98671.75
2022-12-20T02:23:28.241Z,98666.00
2022-12-20T02:26:12.671Z,98651.66
2022-12-20T02:29:04.212Z,98645.09
2022-12-20T02:31:41.169Z,98636.66
2022-12-20T02:34:12.485Z,98618.25
2022-12-20T02:36:41.801Z,98605.84
2022-12-20T02:39:17.204Z,98606.84
2022-12-20T02:41:53.042Z,98606.00
2022-12-20T02:44:43.277Z,98605.16
2022-12-20T02:47:23.039Z,98605.00
2022-12-20T02:49:55.691Z,98594.94
2022-12-20T02:52:27.537Z,98592.34
2022-12-20T02:54:56.997Z,98607.53
2022-12-20T02:57:31.927Z,98616.50
2022-12-20T03:00:07.146Z,98619.09
2022-12-20T03:02:51.744Z,98610.53
2022-12-20T03:05:23.911Z,98601.19
2022-12-20T03:07:53.610Z,98601.19
2022-12-20T03:10:23.801Z,98607.97
2022-12-20T03:12:52.336Z,98614.66
2022-12-20T03:15:20.920Z,98608.78
2022-12-20T03:17:50.818Z,98623.00
2022-12-20T03:20:26.129Z,98606.06
2022-12-20T03:22:57.290Z,98590.81
2022-12-20T03:25:25.667Z,98593.44
2022-12-20T03:27:54.283Z,98591.81
2022-12-20T03:30:22.542Z,98598.63
2022-12-20T03:32:52.199Z,98607.91
2022-12-20T03:35:20.439Z,98608.69
2022-12-20T03:37:48.964Z,98606.19
2022-12-20T03:40:17.299Z,98606.31
2022-12-20T03:42:45.836Z,98603.00
2022-12-20T03:45:14.640Z,98612.22
2022-12-20T03:47:43.367Z,98616.28
2022-12-20T03:50:13.930Z,98604.66
2022-12-20T03:52:42.639Z,98621.44
2022-12-20T03:55:12.672Z,98624.03
2022-12-20T03:57:42.333Z,98594.34
2022-12-20T04:00:14.002Z,98607.50
2022-12-20T04:02:42.567Z,98596.34
2022-12-20T04:05:12.935Z,98589.28
2022-12-20T04:07:41.292Z,98595.22
2022-12-20T04:10:10.809Z,98598.78
2022-12-20T04:12:39.477Z,98579.34
2022-12-20T04:15:09.418Z,98585.31
2022-12-20T04:17:39.271Z,98591.22
2022-12-20T04:20:20.281Z,98593.59
2022-12-20T04:22:51.759Z,98602.84
2022-12-20T04:25:22.345Z,98587.59
2022-12-20T04:27:51.077Z,98584.31
2022-12-20T04:30:19.772Z,98602.16
2022-12-20T04:32:48.465Z,98575.16
2022-12-20T04:35:16.967Z,98578.63
2022-12-20T04:37:45.954Z,98575.31
2022-12-20T04:40:16.163Z,98575.31
2022-12-20T04:42:44.545Z,98576.81
2022-12-20T04:45:13.579Z,98580.16
2022-12-20T04:47:42.899Z,98585.22
2022-12-20T04:50:11.749Z,98570.81
2022-12-20T04:52:57.550Z,98557.25
2022-12-20T04:55:28.070Z,98560.00
2022-12-20T04:57:59.481Z,98548.13
2022-12-20T05:00:30.920Z,98543.97
2022-12-20T05:02:59.342Z,98548.19
2022-12-20T05:05:28.477Z,98546.72
2022-12-20T05:07:57.250Z,98524.50
2022-12-20T05:10:27.060Z,98544.19
2022-12-20T05:12:55.943Z,98542.50
2022-12-20T05:15:24.731Z,98546.66
2022-12-20T05:17:59.582Z,98533.84
2022-12-20T05:20:28.774Z,98544.88
2022-12-20T05:23:14.806Z,98528.72
2022-12-20T05:26:05.058Z,98540.41
2022-12-20T05:28:35.059Z,98534.56
2022-12-20T05:31:03.998Z,98539.81
2022-12-20T05:33:34.357Z,98532.31
2022-12-20T05:36:03.215Z,98517.28
2022-12-20T05:38:31.581Z,98512.47
2022-12-20T05:41:01.503Z,98504.84
2022-12-20T05:43:30.200Z,98486.03
2022-12-20T05:45:58.942Z,98503.19
2022-12-20T05:48:27.354Z,98517.41
2022-12-20T05:50:58.678Z,98504.75
2022-12-20T05:53:27.983Z,98514.13
2022-12-20T05:55:56.905Z,98509.06
2022-12-20T05:58:26.697Z,98516.69
2022-12-20T06:00:56.703Z,98531.03
2022-12-20T06:03:25.910Z,98520.00
2022-12-20T06:05:54.650Z,98525.06
2022-12-20T06:08:23.956Z,98508.25
2022-12-20T06:10:52.607Z,98529.44
2022-12-20T06:13:21.435Z,98529.56
2022-12-20T06:15:51.162Z,98528.03
2022-12-20T06:18:20.355Z,98528.84
2022-12-20T06:20:52.006Z,98524.47
2022-12-20T06:23:21.094Z,98528.84
2022-12-20T06:25:49.338Z,98520.41
2022-12-20T06:28:21.925Z,98514.63
2022-12-20T06:30:56.015Z,98512.22
2022-12-20T06:33:23.911Z,98507.09
2022-12-20T06:35:53.056Z,98506.13
2022-12-20T06:38:21.542Z,98513.00
2022-12-20T06:40:50.201Z,98507.94
2022-12-20T06:43:18.899Z,98503.66
2022-12-20T06:45:47.744Z,98520.72
2022-12-20T06:48:21.298Z,98539.19
2022-12-20T06:50:55.615Z,98530.69
2022-12-20T06:53:25.110Z,98530.66
2022-12-20T06:55:53.902Z,98540.06
2022-12-20T06:58:22.709Z,98543.47
2022-12-20T07:00:51.787Z,98554.31
2022-12-20T07:03:21.647Z,98571.19
2022-12-20T07:05:54.580Z,98566.94
2022-12-20T07:08:23.726Z,98549.81
2022-12-20T07:10:55.196Z,98560.13
2022-12-20T07:13:24.354Z,98562.66
2022-12-20T07:15:59.589Z,98551.69
2022-12-20T07:18:29.295Z,98559.28
2022-12-20T07:21:01.987Z,98553.47
2022-12-20T07:23:30.713Z,98551.84
2022-12-20T07:26:01.577Z,98538.28
2022-12-20T07:28:30.244Z,98523.00
2022-12-20T07:31:06.139Z,98541.00
2022-12-20T07:33:37.461Z,98530.81
2022-12-20T07:36:07.371Z,98523.38
2022-12-20T07:38:36.004Z,98525.09
2022-12-20T07:41:10.068Z,98517.59
2022-12-20T07:43:39.488Z,98518.44
2022-12-20T07:46:09.500Z,98523.50
2022-12-20T07:48:40.103Z,98520.97
2022-12-20T07:51:11.467Z,98514.19
2022-12-20T07:53:45.721Z,98507.47
2022-12-20T07:56:15.720Z,98495.72
2022-12-20T07:58:45.799Z,98500.91
2022-12-20T08:01:15.957Z,98511.03
2022-12-20T08:03:54.778Z,98508.38
2022-12-20T08:06:24.252Z,98500.00
2022-12-20T08:08:57.534Z,98513.63
2022-12-20T08:11:27.664Z,98504.34
2022-12-20T08:13:58.324Z,98496.78
2022-12-20T08:16:27.564Z,98491.78
2022-12-20T08:18:58.362Z,98490.94
2022-12-20T08:21:27.190Z,98480.03
2022-12-20T08:23:57.213Z,98468.19
2022-12-20T08:26:25.798Z,98482.78
2022-12-20T08:28:54.651Z,98475.13
2022-12-20T08:31:24.976Z,98462.63
2022-12-20T08:33:57.240Z,98457.44
2022-12-20T08:36:26.790Z,98473.47
2022-12-20T08:38:55.369Z,98476.19
2022-12-20T08:41:24.197Z,98466.13
2022-12-20T08:43:53.086Z,98461.97
2022-12-20T08:46:22.122Z,98461.22
2022-12-20T08:48:50.767Z,98453.50
2022-12-20T08:51:20.994Z,98456.25
2022-12-20T08:53:50.158Z,98447.84
2022-12-20T08:56:20.270Z,98447.09
2022-12-20T08:58:49.581Z,98444.56
2022-12-20T09:01:21.534Z,98448.78
2022-12-20T09:03:50.849Z,98463.31
2022-12-20T09:06:25.676Z,98449.88
2022-12-20T09:08:55.896Z,98451.69
2022-12-20T09:11:26.193Z,98449.28
2022-12-20T09:13:56.938Z,98451.13
2022-12-20T09:16:31.286Z,98449.34
2022-12-20T09:19:05.475Z,98441.00
2022-12-20T09:21:37.602Z,98451.16
2022-12-20T09:24:07.192Z,98455.44
2022-12-20T09:26:37.185Z,98459.78
2022-12-20T09:29:08.252Z,98462.34
2022-12-20T09:31:39.632Z,98470.91
2022-12-20T09:34:08.273Z,98475.22
2022-12-20T09:36:39.006Z,98455.69
2022-12-20T09:39:09.123Z,98461.66
2022-12-20T09:41:41.046Z,98459.94
2022-12-20T09:44:17.890Z,98449.66
2022-12-20T09:46:50.987Z,98449.69
2022-12-20T09:49:21.700Z,98443.69
2022-12-20T09:52:17.012Z,98442.81
2022-12-20T09:54:54.497Z,98446.31
2022-12-20T09:57:30.945Z,98444.75
2022-12-20T09:59:59.751Z,98439.34
2022-12-20T10:05:40.560Z,98435.19
2022-12-20T10:08:22.231Z,98429.13
2022-12-20T10:10:56.531Z,98413.06
2022-12-20T10:13:44.849Z,98404.69
2022-12-20T10:16:29.786Z,98406.22
2022-12-20T10:19:16.524Z,98396.88
2022-12-20T10:21:54.626Z,98393.69
2022-12-20T10:24:30.591Z,98377.53
2022-12-20T10:27:04.950Z,98386.16
2022-12-20T10:29:34.620Z,98364.19
2022-12-20T10:32:04.668Z,98349.88
2022-12-20T10:34:38.972Z,98355.84
2022-12-20T10:37:13.714Z,98354.25
2022-12-20T10:39:45.948Z,98367.94
2022-12-20T10:42:34.740Z,98357.09
2022-12-20T10:45:04.200Z,98351.94
2022-12-20T10:47:40.504Z,98346.09
2022-12-20T10:50:17.295Z,98345.31
2022-12-20T10:52:47.050Z,98338.53
2022-12-20T10:55:38.909Z,98339.38
2022-12-20T10:58:14.502Z,98341.88
2022-12-20T11:00:45.245Z,98339.41
2022-12-20T11:03:19.634Z,98342.81
2022-12-20T11:05:56.900Z,98336.13
2022-12-20T11:08:51.122Z,98335.28
2022-12-20T11:11:22.303Z,98331.91
2022-12-20T11:13:51.791Z,98330.25
2022-12-20T11:16:32.177Z,98319.28
2022-12-20T11:19:44.021Z,98329.56
2022-12-20T11:22:24.604Z,98327.97
2022-12-20T11:25:05.048Z,98309.28
2022-12-20T11:27:46.590Z,98300.81
2022-12-20T11:30:21.003Z,98292.28
2022-12-20T11:33:23.123Z,98288.06
2022-12-20T11:35:57.560Z,98312.72
2022-12-20T11:38:38.846Z,98328.00
2022-12-20T11:41:18.720Z,98326.34
2022-12-20T11:44:26.977Z,98328.06
2022-12-20T11:47:20.769Z,98313.63
2022-12-20T11:50:15.530Z,98309.38
2022-12-20T11:52:52.247Z,98297.47
2022-12-20T11:55:27.345Z,98296.56
2022-12-20T11:58:18.076Z,98280.41
2022-12-20T12:00:55.068Z,98284.63
2022-12-20T12:03:31.553Z,98280.31
2022-12-20T12:06:03.740Z,98278.63
2022-12-20T12:08:41.129Z,98276.09
2022-12-20T12:11:56.141Z,98276.09
2022-12-20T12:14:21.282Z,98262.53
2022-12-20T12:16:55.602Z,98276.91
2022-12-20T12:19:29.666Z,98265.91
2022-12-20T12:22:02.671Z,98254.09
2022-12-20T12:24:39.498Z,98256.59
2022-12-20T12:27:18.388Z,98230.34
2022-12-20T12:29:47.667Z,98239.69
2022-12-20T12:32:22.229Z,98225.25
2022-12-20T12:35:06.373Z,98238.78
2022-12-20T12:38:06.479Z,98232.03
2022-12-20T12:41:14.836Z,98239.69
2022-12-20T12:44:07.309Z,98244.81
2022-12-20T12:46:40.236Z,98239.75
2022-12-20T12:49:18.239Z,98230.41
2022-12-20T12:51:55.865Z,98253.31
2022-12-20T12:54:27.755Z,98252.50
2022-12-20T12:57:03.507Z,98226.16
2022-12-20T12:59:52.953Z,98211.75
2022-12-20T13:02:42.150Z,98207.47
2022-12-20T13:05:38.035Z,98206.66
2022-12-20T13:08:18.569Z,98198.16
2022-12-20T13:11:14.290Z,98201.56
2022-12-20T13:13:42.714Z,98187.94
2022-12-20T13:17:10.189Z,98186.25
2022-12-20T13:19:20.838Z,98192.16
2022-12-20T13:21:57.678Z,98196.44
2022-12-20T13:24:39.419Z,98176.09
2022-12-20T13:27:33.949Z,98176.94
2022-12-20T13:30:28.708Z,98181.19
2022-12-20T13:33:16.778Z,98175.25
2022-12-20T13:35:58.109Z,98165.06
2022-12-20T13:38:52.031Z,98174.41
2022-12-20T13:41:35.168Z,98182.88
2022-12-20T13:44:32.947Z,98192.19
2022-12-20T13:47:07.906Z,98176.91
2022-12-20T13:49:40.197Z,98193.00
2022-12-20T13:52:18.747Z,98208.28
2022-12-20T13:54:52.620Z,98215.06
2022-12-20T13:57:27.564Z,98210.81
2022-12-20T14:00:05.814Z,98216.75
2022-12-20T14:02:42.437Z,98225.22
2022-12-20T14:05:20.739Z,98228.59
2022-12-20T14:07:57.597Z,98243.88
2022-12-20T14:10:30.979Z,98237.94
2022-12-20T14:13:01.279Z,98222.63
2022-12-20T14:15:33.515Z,98215.78
2022-12-20T14:18:08.745Z,98192.97
2022-12-20T14:21:00.431Z,98171.78
2022-12-20T14:23:38.200Z,98187.03
2022-12-20T14:26:15.001Z,98188.72
2022-12-20T14:28:49.127Z,98181.09
2022-12-20T14:31:28.617Z,98180.25
2022-12-20T14:34:07.076Z,98166.63
2022-12-20T14:36:37.453Z,98153.94
2022-12-20T14:39:26.429Z,98146.31
2022-12-20T14:42:01.366Z,98136.09
2022-12-20T14:44:33.327Z,98143.75
2022-12-20T14:47:18.200Z,98170.84
2022-12-20T14:49:52.943Z,98162.31
2022-12-20T14:52:27.644Z,98137.78
2022-12-20T14:55:10.494Z,98116.59
2022-12-20T14:57:47.456Z,98118.28
2022-12-20T15:00:25.680Z,98135.19
2022-12-20T15:03:03.287Z,98141.97
2022-12-20T15:05:49.368Z,98138.56
2022-12-20T15:08:20.909Z,98146.16
2022-12-20T15:10:53.920Z,98141.09
2022-12-20T15:13:27.730Z,98127.50
2022-12-20T15:15:57.305Z,98109.72
2022-12-20T15:18:27.855Z,98125.84
2022-12-20T15:21:03.985Z,98118.22
2022-12-20T15:23:34.749Z,98121.63
2022-12-20T15:26:04.527Z,98121.63
2022-12-20T15:28:37.523Z,98134.28
2022-12-20T15:31:06.965Z,98141.00
2022-12-20T15:33:40.275Z,98125.69
2022-12-20T15:36:16.416Z,98129.09
2022-12-20T15:41:37.563Z,98129.94
2022-12-20T15:44:14.713Z,98124.88
2022-12-20T15:46:45.005Z,98133.38
2022-12-20T15:49:17.214Z,98109.59
2022-12-20T15:51:49.016Z,98112.16
2022-12-20T15:54:26.849Z,98130.00
2022-12-20T15:56:58.323Z,98133.34
2022-12-20T16:02:24.131Z,98126.53
2022-12-20T16:04:57.062Z,98119.72
2022-12-20T16:07:26.049Z,98122.31
2022-12-20T16:09:57.587Z,98123.13
2022-12-20T16:12:28.926Z,98141.75
2022-12-20T16:15:04.166Z,98133.25
2022-12-20T16:17:33.371Z,98124.88
2022-12-20T16:20:01.759Z,98101.97
2022-12-20T16:22:33.576Z,98113.00
2022-12-20T16:25:05.674Z,98116.41
2022-12-20T16:27:34.573Z,98118.09
2022-12-20T16:30:05.414Z,98126.53
2022-12-20T16:32:35.058Z,98116.38
2022-12-20T16:35:08.050Z,98101.13
2022-12-20T16:37:39.147Z,98103.63
2022-12-20T16:40:09.179Z,98106.09
2022-12-20T16:42:37.762Z,98090.88
2022-12-20T16:45:15.060Z,98099.38
2022-12-20T16:47:43.499Z,98092.56
2022-12-20T16:50:12.260Z,98078.19
2022-12-20T16:52:40.765Z,98079.84
2022-12-20T16:55:15.980Z,98094.28
2022-12-20T16:57:44.559Z,98077.31
2022-12-20T17:00:23.696Z,98069.72
2022-12-20T17:02:52.827Z,98080.69
2022-12-20T17:05:28.258Z,98094.16
2022-12-20T17:07:57.284Z,98098.28
2022-12-20T17:10:27.797Z,98072.78
2022-12-20T17:12:57.840Z,98093.19
2022-12-20T17:15:32.204Z,98089.84
2022-12-20T17:18:01.203Z,98110.09
2022-12-20T17:20:36.468Z,98103.22
2022-12-20T17:25:54.365Z,98095.59
2022-12-20T17:28:25.431Z,98076.09
2022-12-20T17:30:57.914Z,98075.31
2022-12-20T17:33:31.200Z,98063.50
2022-12-20T17:36:00.340Z,98066.03
2022-12-20T17:38:30.190Z,98070.25
2022-12-20T17:40:59.237Z,98081.31
2022-12-20T17:43:28.138Z,98066.91
2022-12-20T17:45:58.951Z,98097.34
2022-12-20T17:48:32.273Z,98108.31
2022-12-20T17:51:03.503Z,98109.13
2022-12-20T17:53:32.196Z,98099.78
2022-12-20T17:56:00.997Z,98101.50
2022-12-20T17:58:29.473Z,98091.41
2022-12-20T18:00:59.557Z,98079.41
2022-12-20T18:04:02.218Z,98087.03
2022-12-20T18:06:16.622Z,98080.28
2022-12-20T18:08:46.280Z,98070.19
2022-12-20T18:11:16.335Z,98065.88
2022-12-20T18:13:45.270Z,98086.28
2022-12-20T18:16:17.808Z,98098.97
2022-12-20T18:18:46.635Z,98093.91
2022-12-20T18:21:31.246Z,98107.50
2022-12-20T18:24:01.792Z,98094.81
2022-12-20T18:26:32.512Z,98075.38
2022-12-20T18:29:03.614Z,98088.97
2022-12-20T18:31:37.289Z,98102.53
2022-12-20T18:34:06.708Z,98104.22
2022-12-20T18:36:37.314Z,98102.50
2022-12-20T18:39:08.403Z,98095.69
2022-12-20T18:41:40.064Z,98091.50
2022-12-20T18:44:09.441Z,98092.41
2022-12-20T18:46:41.405Z,98080.56
2022-12-20T18:49:11.371Z,98070.41
2022-12-20T18:51:41.049Z,98078.03
2022-12-20T18:54:12.881Z,98084.03
2022-12-20T18:56:42.642Z,98080.63
2022-12-20T18:59:13.116Z,98076.38
2022-12-20T19:01:45.522Z,98083.13
2022-12-20T19:04:19.328Z,98053.47
2022-12-20T19:06:51.556Z,98045.91
2022-12-20T19:09:20.503Z,98034.84
2022-12-20T19:11:56.244Z,98029.81
2022-12-20T19:14:26.967Z,98032.31
2022-12-20T19:16:58.467Z,98023.06
2022-12-20T19:19:27.502Z,98031.50
2022-12-20T19:21:56.840Z,98030.56
2022-12-20T19:24:26.639Z,98031.41
2022-12-20T19:26:55.588Z,98035.72
2022-12-20T19:29:25.084Z,98012.06
2022-12-20T19:31:56.024Z,98012.06
2022-12-20T19:34:30.457Z,98005.28
2022-12-20T19:37:01.224Z,98007.00
2022-12-20T19:39:32.075Z,97997.75
2022-12-20T19:42:23.445Z,97980.81
2022-12-20T19:44:52.297Z,97989.31
2022-12-20T19:47:22.155Z,97980.00
2022-12-20T19:49:53.953Z,97964.75
2022-12-20T19:52:28.248Z,97999.53
2022-12-20T19:54:57.965Z,98006.22
2022-12-20T19:57:30.525Z,98017.28
2022-12-20T19:59:59.571Z,98025.75
2022-12-20T20:02:30.364Z,98013.06
2022-12-20T20:05:01.861Z,98009.66
2022-12-20T20:07:34.437Z,98000.31
2022-12-20T20:10:06.556Z,98021.50
2022-12-20T20:12:39.495Z,98037.59
2022-12-20T20:15:13.374Z,98035.09
2022-12-20T20:17:42.132Z,98028.28
2022-12-20T20:20:14.574Z,98029.13
2022-12-20T20:22:43.841Z,98024.88
2022-12-20T20:25:15.435Z,98024.88
2022-12-20T20:27:45.138Z,98020.63
2022-12-20T20:30:17.197Z,98008.75
2022-12-20T20:32:46.504Z,98003.66
2022-12-20T20:35:18.266Z,97971.47
2022-12-20T20:37:48.077Z,97986.78
2022-12-20T20:40:17.283Z,97989.34
2022-12-20T20:42:48.177Z,97996.91
2022-12-20T20:45:20.081Z,98012.16
2022-12-20T20:47:48.964Z,97996.06
2022-12-20T20:50:19.224Z,98009.56
2022-12-20T20:52:47.846Z,97996.84
2022-12-20T20:55:18.242Z,98012.09
2022-12-20T20:57:48.009Z,98009.53
2022-12-20T21:00:17.251Z,97994.28
2022-12-20T21:02:46.181Z,98011.25
2022-12-20T21:08:06.363Z,98007.00
2022-12-20T21:10:37.804Z,98010.38
2022-12-20T21:13:07.172Z,97993.41
2022-12-20T21:15:37.513Z,97994.28
2022-12-20T21:18:09.384Z,97984.13
2022-12-20T21:20:39.199Z,97992.63
2022-12-20T21:23:09.917Z,97990.09
2022-12-20T21:25:40.527Z,97986.69
2022-12-20T21:28:10.179Z,97972.25
2022-12-20T21:30:39.270Z,97972.25
2022-12-20T21:33:08.891Z,97997.72
2022-12-20T21:35:39.095Z,97998.53
2022-12-20T21:38:10.577Z,97982.44
2022-12-20T21:40:39.770Z,97988.38
2022-12-20T21:43:08.349Z,97975.72
2022-12-20T21:45:37.246Z,97975.69
2022-12-20T21:48:09.099Z,97992.63
2022-12-20T21:50:38.644Z,98001.94
2022-12-20T21:53:12.861Z,97993.50
2022-12-20T21:55:46.443Z,97981.66
2022-12-20T21:58:15.983Z,98002.00
2022-12-20T22:00:50.891Z,97993.53
2022-12-20T22:03:23.778Z,97989.25
2022-12-20T22:05:54.098Z,97996.88
2022-12-20T22:08:25.830Z,97996.06
2022-12-20T22:11:00.582Z,98005.34
2022-12-20T22:13:28.996Z,98013.81
2022-12-20T22:15:57.949Z,98010.38
2022-12-20T22:18:26.790Z,98015.47
2022-12-20T22:20:55.263Z,98023.88
2022-12-20T22:23:25.487Z,98026.47
2022-12-20T22:25:54.674Z,98010.31
2022-12-20T22:28:24.397Z,98018.88
2022-12-20T22:30:54.253Z,98015.47
2022-12-20T22:33:23.893Z,98030.72
2022-12-20T22:35:52.186Z,98024.75
2022-12-20T22:38:21.324Z,98007.91
2022-12-20T22:40:52.134Z,98001.97
2022-12-20T22:43:20.518Z,98015.50
2022-12-20T22:45:59.107Z,98017.97
2022-12-20T22:48:28.689Z,98024.78
2022-12-20T22:51:00.944Z,98026.50
2022-12-20T22:53:30.022Z,98020.59
2022-12-20T22:56:00.225Z,98009.56
2022-12-20T22:58:29.363Z,98018.94
2022-12-20T23:00:57.889Z,98011.25
2022-12-20T23:03:27.008Z,98006.16
2022-12-20T23:05:58.108Z,97996.06
2022-12-20T23:08:28.226Z,98001.97
2022-12-20T23:11:14.164Z,97998.63
2022-12-20T23:14:01.802Z,98011.31
2022-12-20T23:16:32.108Z,98007.94
2022-12-20T23:19:02.230Z,98008.72
2022-12-20T23:21:48.808Z,98014.69
2022-12-20T23:24:17.874Z,98017.19
2022-12-20T23:26:46.553Z,97995.13
2022-12-20T23:29:17.739Z,98007.00
2022-12-20T23:31:46.470Z,97996.88
2022-12-20T23:34:15.866Z,98012.94
2022-12-20T23:37:02.195Z,97998.56
2022-12-20T23:39:30.800Z,98001.06
2022-12-20T23:42:01.034Z,98013.78
2022-12-20T23:44:31.327Z,98009.56
2022-12-20T23:46:59.893Z,97998.56
2022-12-20T23:49:28.108Z,98000.25
2022-12-20T23:51:57.627Z,97992.66
2022-12-20T23:54:26.402Z,97986.75
2022-12-20T23:56:54.976Z,97989.25
2022-12-20T23:59:23.759Z,97986.75
